CYRV

Revelstoke Airport

Revelstoke, British Columbia, Canada
METAR CYRV 201400Z AUTO 33003KT 230V010 9SM BKN110 BKN130 17/07 A2988 RMK SLP116 DENSITY ALT 2000FT
Observed Flight Rules
Jul-20 @ 14:00 UTC (38 minutes ago) Visual Flight Rules
Wind Visibility Clouds
330° at 3 knots 9 miles
  • Broken at 11,000' AGL
  • Broken at 13,000' AGL
Temperatures Readings
Current 17°C / 63°F
Dewpoint 7°C / 45°F
Humidity 52%
Altimeter 29.88" Hg
Pressure 1011.6 hPa
Elevation 443
METAR CYRV 201400Z AUTO 33003KT 230V010 9SM BKN110 BKN130 17/07 A2988 RMK SLP116 DENSITY ALT 2000FT
Observed Flight Rules
Jul-20 @ 14:00 UTC
(38 minutes ago)
VFR
Wind Visibility
330° at 3 knots 9 miles
Clouds
  • Broken at 11,000' AGL
  • Broken at 13,000' AGL
Temperature Dewpoint
17°C / 63°F 7°C / 45°F
Humidity Altimeter Pressure
52% 29.88" Hg 1011.6 hPa